BERRYESSA (BER)

Elevation: 456' · PUTAH CR basin · Operator: US Bureau of Reclamation

Provisional data, subject to change.
Query executed Wednesday at 2:11:10   clock

Select a sensor type for a plot of data.
Note: Reservoir Flows are daily averages.

Earlier

Date RES ELE    STORAGE    OUTFLOW    INFLOW    PPT INC   
 FEET   AF   CFS   CFS   INCHES  
04/26/2016 410.69 1040551 443 157 0.00
04/27/2016 410.77 1041825 474 1195 0.00
04/28/2016 410.66 1040073 479 -378 0.31
04/29/2016 410.64 1039754 460 404 0.00
04/30/2016 410.62 1039436 427 393 0.00
05/01/2016 410.51 1037685 415 -299 0.00
05/02/2016 410.47 1037049 423 220 0.00
05/03/2016 410.43 1036413 446 215 0.00
05/04/2016 410.39 1035777 448 200 0.00
05/05/2016 410.34 1034983 451 124 0.00
05/06/2016 410.29 1034188 438 65 0.00
05/07/2016 410.27 1033871 402 264 0.02
05/08/2016 410.24 1033394 374 140 0.23
05/09/2016 410.19 1032600 360 -12 0.00
05/10/2016 410.19 1032600 369 436 0.00
05/11/2016 410.15 1031966 385 183 0.00
05/12/2016 410.10 1031172 376 77 0.00
05/13/2016 410.06 1030538 404 196 0.00
05/14/2016 409.99 1029427 420 -28 0.00
05/15/2016 409.93 1028476 420 36 0.00
05/16/2016 409.88 1027684 426 105 0.00
05/17/2016 409.81 1026575 483 36 0.00
05/18/2016 409.76 1025784 514 277 0.00
05/19/2016 409.68 1024518 496 -13 0.00
05/20/2016 409.57 1022778 470 -278 0.00
05/21/2016 409.51 1021829 462 79 0.00
05/22/2016 409.46 1021039 437 100 0.00
05/23/2016 -- -- -- -- --
05/24/2016 -- -- -- -- --
05/25/2016 -- -- -- -- --

Later | Latest

Warning! This data is preliminary and subject to revision.

Show BER Map | Plot BER Data | 1 Month BER Data | Real-Time BER Data | BER Info